Asukamaru — JG5536 — position and weather

sailwx.info

Track history (hours):
 
Tides and Currents Weather Stations Pressure Air Temp Water Temp Dewpoint Dewpoint Depression Visibility Wind Speed Wind Dir Waves Ship Positions

Asukamaru

Last reported at 2015-Mar-27 07:33 UTC. Time now 2015-Mar-27 08:19 UTC.
Position N 35°38' E 139°45'.

Length 31 m; draft 3 m.

Type: Tug. MMSI: 431001145.

Date/timePositionNaut miles runAvg speedWind from/ knotsBaromVisibWave heightAir tempDewpointWater temp
2015-Mar-27 07:33N 35°38' E 139°45'0 0.0
2015-Mar-27 06:33N 35°38' E 139°45'0 0.0
2015-Mar-27 05:32N 35°38' E 139°45'0 0.0
2015-Mar-27 04:33N 35°38' E 139°45'0 0.0
2015-Mar-27 03:33N 35°38' E 139°45'0 0.0
2015-Mar-27 02:33N 35°38' E 139°45'0 0.0
2015-Mar-27 01:33N 35°38' E 139°45'0 0.0
2015-Mar-27 00:33N 35°38' E 139°45'0 0.0
2015-Mar-26 23:33N 35°38' E 139°45'3 3.3
2015-Mar-26 22:33N 35°37' E 139°49'1 1.4
2015-Mar-26 21:33N 35°36' E 139°50'3 3.5
2015-Mar-26 20:33N 35°37' E 139°46'1 1.0
2015-Mar-26 19:33N 35°38' E 139°45'0 0.0
2015-Mar-26 18:33N 35°38' E 139°45'0 0.0
2015-Mar-26 17:33N 35°38' E 139°45'0 0.0
2015-Mar-26 16:33N 35°38' E 139°45'0 0.0
2015-Mar-26 15:33N 35°38' E 139°45'0 0.0
2015-Mar-26 14:33N 35°38' E 139°45'0 0.0
2015-Mar-26 13:33N 35°38' E 139°45'0 0.0
2015-Mar-26 12:33N 35°38' E 139°45'0 0.0
2015-Mar-26 11:33N 35°38' E 139°45'0 0.0
2015-Mar-26 10:33N 35°38' E 139°45'3 2.6
2015-Mar-26 09:33N 35°36' E 139°47'1 0.6
2015-Mar-26 08:33N 35°36' E 139°46'0 0.0
2015-Mar-26 07:33N 35°36' E 139°46'2 1.8
2015-Mar-26 06:33N 35°37' E 139°46'1 0.9
2015-Mar-26 05:33N 35°38' E 139°45'0 0.0
2015-Mar-26 04:33N 35°38' E 139°45'0 0.0
2015-Mar-26 03:33N 35°38' E 139°45'0 0.0
2015-Mar-26 02:33N 35°38' E 139°45'0 0.0
2015-Mar-26 01:33N 35°38' E 139°45'0 0.0
2015-Mar-26 00:33N 35°38' E 139°45'0 0.0
2015-Mar-25 23:33N 35°38' E 139°45'2 1.5
2015-Mar-25 22:33N 35°37' E 139°46'2 1.5
2015-Mar-25 21:33N 35°38' E 139°45'0 0.0
2015-Mar-25 20:33N 35°38' E 139°45'0 0.0
2015-Mar-25 19:33N 35°38' E 139°45'0 0.0
2015-Mar-25 18:33N 35°38' E 139°45'0 0.0
2015-Mar-25 17:33N 35°38' E 139°45'0 0.0
2015-Mar-25 16:34N 35°38' E 139°45'0 0.0
2015-Mar-25 15:33N 35°38' E 139°45'0 0.0
2015-Mar-25 14:33N 35°38' E 139°45'0 0.0
2015-Mar-25 13:33N 35°38' E 139°45'0 0.0
2015-Mar-25 12:33N 35°38' E 139°45'0 0.0
2015-Mar-25 11:33N 35°38' E 139°45'0 0.0
2015-Mar-25 10:33N 35°38' E 139°45'1 1.0
2015-Mar-25 09:33N 35°37' E 139°46'0 0.2
2015-Mar-25 08:33N 35°37' E 139°46'1 1.3
2015-Mar-25 07:33N 35°38' E 139°45'0 0.0
2015-Mar-25 06:33N 35°38' E 139°45'0 0.0
2015-Mar-25 05:34N 35°38' E 139°45'0 0.0
2015-Mar-25 04:33N 35°38' E 139°45'0 0.0
2015-Mar-25 03:33N 35°38' E 139°45'0 0.0
2015-Mar-25 02:33N 35°38' E 139°45'0 0.0
2015-Mar-25 01:33N 35°38' E 139°45'0 0.0
2015-Mar-25 00:34N 35°38' E 139°45'0 0.0
2015-Mar-24 23:33N 35°38' E 139°45'3 3.0
2015-Mar-24 22:33N 35°35' E 139°47'1 0.7
2015-Mar-24 21:33N 35°35' E 139°47'3 2.8
2015-Mar-24 20:33N 35°38' E 139°46'1 0.5
2015-Mar-24 19:33N 35°38' E 139°45'0 0.0
2015-Mar-24 18:33N 35°38' E 139°45'0 0.0
2015-Mar-24 17:33N 35°38' E 139°45'0 0.0
2015-Mar-24 16:33N 35°38' E 139°45'0 0.0
2015-Mar-24 15:33N 35°38' E 139°45'0 0.0
2015-Mar-24 14:33N 35°38' E 139°45'0 0.0
2015-Mar-24 13:34N 35°38' E 139°45'0 0.0
2015-Mar-24 12:33N 35°38' E 139°45'0 0.0
2015-Mar-24 11:33N 35°38' E 139°45'0 0.0
2015-Mar-24 10:33N 35°38' E 139°45'0 0.0
2015-Mar-24 09:33N 35°38' E 139°45'0 0.0
2015-Mar-24 08:33N 35°38' E 139°45'0 0.0
2015-Mar-24 07:33N 35°38' E 139°45'0 0.0
2015-Mar-24 06:34N 35°38' E 139°45'0 0.0
2015-Mar-24 05:33N 35°38' E 139°45'0 0.0
2015-Mar-24 04:33N 35°38' E 139°45'0 0.0
2015-Mar-24 03:33N 35°38' E 139°45'0 0.0
2015-Mar-24 02:33N 35°38' E 139°45'0 0.0
2015-Mar-24 01:33N 35°38' E 139°45'0 0.0
2015-Mar-24 00:33N 35°38' E 139°45'0 0.0
2015-Mar-23 23:33N 35°38' E 139°45'3 3.1
2015-Mar-23 22:33N 35°35' E 139°47'1 0.8
2015-Mar-23 21:34N 35°35' E 139°48'4 3.7
2015-Mar-23 20:33N 35°38' E 139°45'2 2.1
2015-Mar-23 19:34N 35°36' E 139°47'1 0.7
2015-Mar-23 18:34N 35°37' E 139°46'1 1.4
2015-Mar-23 17:33N 35°38' E 139°45'0 0.0
2015-Mar-23 16:33N 35°38' E 139°45'0 0.0
2015-Mar-23 15:33N 35°38' E 139°46'0 0.0
2015-Mar-23 14:33N 35°38' E 139°45'0 0.0
2015-Mar-23 13:33N 35°38' E 139°45'0 0.0
2015-Mar-23 12:33N 35°38' E 139°45'0 0.0
2015-Mar-23 11:33N 35°38' E 139°45'0 0.0
2015-Mar-23 10:33N 35°38' E 139°45'0 0.0
2015-Mar-23 09:34N 35°38' E 139°45'0 0.0
2015-Mar-23 08:34N 35°38' E 139°45'0 0.0
2015-Mar-23 07:33N 35°38' E 139°45'0 0.0
2015-Mar-23 06:33N 35°38' E 139°45'0 0.0
2015-Mar-23 05:33N 35°38' E 139°45'0 0.0
2015-Mar-23 04:33N 35°38' E 139°45'0 0.0
2015-Mar-23 03:33N 35°38' E 139°45'0 0.0
2015-Mar-23 02:33N 35°38' E 139°45'0 0.0
2015-Mar-23 01:33N 35°38' E 139°45'0 0.0
2015-Mar-23 00:33N 35°38' E 139°45'0 0.2
2015-Mar-22 23:33N 35°38' E 139°46'5 4.8
2015-Mar-22 22:33N 35°34' E 139°49'5 4.8
2015-Mar-22 21:33N 35°38' E 139°45'0 0.0
2015-Mar-22 20:33N 35°38' E 139°45'0 0.0
2015-Mar-22 19:33N 35°38' E 139°45'0 0.0
2015-Mar-22 18:33N 35°38' E 139°45'0 0.0
2015-Mar-22 17:33N 35°38' E 139°45'0 0.0
2015-Mar-22 16:33N 35°38' E 139°45'0 0.0
2015-Mar-22 15:33N 35°38' E 139°45'0 0.0
2015-Mar-22 14:33N 35°38' E 139°45'0 0.0
2015-Mar-22 13:33N 35°38' E 139°45'0 0.0
2015-Mar-22 12:34N 35°38' E 139°45'0 0.0
2015-Mar-22 11:33N 35°38' E 139°45'0 0.0
2015-Mar-22 10:33N 35°38' E 139°45'3 0.2
2015-Mar-21 22:29N 35°36' E 139°48'2 2.6
2015-Mar-21 21:33N 35°34' E 139°49'4 3.6
2015-Mar-21 20:30N 35°37' E 139°46'2 0.0
2015-Mar-20 11:14N 35°38' E 139°45'1 1.4
2015-Mar-20 10:24N 35°37' E 139°46'2 2.1
2015-Mar-20 09:33N 35°36' E 139°47'2 1.7
2015-Mar-20 08:32N 35°37' E 139°46'2 0.2
2015-Mar-19 23:13N 35°35' E 139°47'2 3.0
2015-Mar-19 22:32N 35°34' E 139°49'2 2.0
2015-Mar-19 21:32N 35°35' E 139°47'3 2.5
2015-Mar-19 20:29N 35°38' E 139°46'0 0.0
2015-Mar-19 09:13N 35°38' E 139°46'3 4.4
2015-Mar-19 08:33N 35°36' E 139°47'2 1.6
2015-Mar-19 07:25N 35°37' E 139°46'1 0.1
2015-Mar-18 23:04N 35°38' E 139°46'2 3.9
2015-Mar-18 22:29N 35°36' E 139°48'1 1.3
2015-Mar-18 21:29N 35°37' E 139°46'1 0.0
2015-Mar-17 15:03N 35°38' E 139°46'2 3.4
2015-Mar-17 14:23N 35°36' E 139°47'0 0.3
2015-Mar-17 13:32N 35°35' E 139°47'2 0.5
2015-Mar-17 10:04N 35°37' E 139°46'1 1.0
2015-Mar-17 09:33N 35°37' E 139°47'1 0.5
2015-Mar-17 08:24N 35°37' E 139°46'  
Track history (hours):
 
Tides and Currents Weather Stations Pressure Air Temp Water Temp Dewpoint Dewpoint Depression Visibility Wind Speed Wind Dir Waves Ship Positions

Asukamaru

Last reported at 2015-Mar-27 07:33 UTC. Time now 2015-Mar-27 08:19 UTC.
Position N 35°38' E 139°45'.

Length 31 m; draft 3 m.

Type: Tug. MMSI: 431001145.

Date/timePositionNaut miles runAvg speedWind from/ knotsBaromVisibWave heightAir tempDewpointWater temp
2015-Mar-27 07:33N 35°38' E 139°45'0 0.0
2015-Mar-27 06:33N 35°38' E 139°45'0 0.0
2015-Mar-27 05:32N 35°38' E 139°45'0 0.0
2015-Mar-27 04:33N 35°38' E 139°45'0 0.0
2015-Mar-27 03:33N 35°38' E 139°45'0 0.0
2015-Mar-27 02:33N 35°38' E 139°45'0 0.0
2015-Mar-27 01:33N 35°38' E 139°45'0 0.0
2015-Mar-27 00:33N 35°38' E 139°45'0 0.0
2015-Mar-26 23:33N 35°38' E 139°45'3 3.3
2015-Mar-26 22:33N 35°37' E 139°49'1 1.4
2015-Mar-26 21:33N 35°36' E 139°50'3 3.5
2015-Mar-26 20:33N 35°37' E 139°46'1 1.0
2015-Mar-26 19:33N 35°38' E 139°45'0 0.0
2015-Mar-26 18:33N 35°38' E 139°45'0 0.0
2015-Mar-26 17:33N 35°38' E 139°45'0 0.0
2015-Mar-26 16:33N 35°38' E 139°45'0 0.0
2015-Mar-26 15:33N 35°38' E 139°45'0 0.0
2015-Mar-26 14:33N 35°38' E 139°45'0 0.0
2015-Mar-26 13:33N 35°38' E 139°45'0 0.0
2015-Mar-26 12:33N 35°38' E 139°45'0 0.0
2015-Mar-26 11:33N 35°38' E 139°45'0 0.0
2015-Mar-26 10:33N 35°38' E 139°45'3 2.6
2015-Mar-26 09:33N 35°36' E 139°47'1 0.6
2015-Mar-26 08:33N 35°36' E 139°46'0 0.0
2015-Mar-26 07:33N 35°36' E 139°46'2 1.8
2015-Mar-26 06:33N 35°37' E 139°46'1 0.9
2015-Mar-26 05:33N 35°38' E 139°45'0 0.0
2015-Mar-26 04:33N 35°38' E 139°45'0 0.0
2015-Mar-26 03:33N 35°38' E 139°45'0 0.0
2015-Mar-26 02:33N 35°38' E 139°45'0 0.0
2015-Mar-26 01:33N 35°38' E 139°45'0 0.0
2015-Mar-26 00:33N 35°38' E 139°45'0 0.0
2015-Mar-25 23:33N 35°38' E 139°45'2 1.5
2015-Mar-25 22:33N 35°37' E 139°46'2 1.5
2015-Mar-25 21:33N 35°38' E 139°45'0 0.0
2015-Mar-25 20:33N 35°38' E 139°45'0 0.0
2015-Mar-25 19:33N 35°38' E 139°45'0 0.0
2015-Mar-25 18:33N 35°38' E 139°45'0 0.0
2015-Mar-25 17:33N 35°38' E 139°45'0 0.0
2015-Mar-25 16:34N 35°38' E 139°45'0 0.0
2015-Mar-25 15:33N 35°38' E 139°45'0 0.0
2015-Mar-25 14:33N 35°38' E 139°45'0 0.0
2015-Mar-25 13:33N 35°38' E 139°45'0 0.0
2015-Mar-25 12:33N 35°38' E 139°45'0 0.0
2015-Mar-25 11:33N 35°38' E 139°45'0 0.0
2015-Mar-25 10:33N 35°38' E 139°45'1 1.0
2015-Mar-25 09:33N 35°37' E 139°46'0 0.2
2015-Mar-25 08:33N 35°37' E 139°46'1 1.3
2015-Mar-25 07:33N 35°38' E 139°45'0 0.0
2015-Mar-25 06:33N 35°38' E 139°45'0 0.0
2015-Mar-25 05:34N 35°38' E 139°45'0 0.0
2015-Mar-25 04:33N 35°38' E 139°45'0 0.0
2015-Mar-25 03:33N 35°38' E 139°45'0 0.0
2015-Mar-25 02:33N 35°38' E 139°45'0 0.0
2015-Mar-25 01:33N 35°38' E 139°45'0 0.0
2015-Mar-25 00:34N 35°38' E 139°45'0 0.0
2015-Mar-24 23:33N 35°38' E 139°45'3 3.0
2015-Mar-24 22:33N 35°35' E 139°47'1 0.7
2015-Mar-24 21:33N 35°35' E 139°47'3 2.8
2015-Mar-24 20:33N 35°38' E 139°46'1 0.5
2015-Mar-24 19:33N 35°38' E 139°45'0 0.0
2015-Mar-24 18:33N 35°38' E 139°45'0 0.0
2015-Mar-24 17:33N 35°38' E 139°45'0 0.0
2015-Mar-24 16:33N 35°38' E 139°45'0 0.0
2015-Mar-24 15:33N 35°38' E 139°45'0 0.0
2015-Mar-24 14:33N 35°38' E 139°45'0 0.0
2015-Mar-24 13:34N 35°38' E 139°45'0 0.0
2015-Mar-24 12:33N 35°38' E 139°45'0 0.0
2015-Mar-24 11:33N 35°38' E 139°45'0 0.0
2015-Mar-24 10:33N 35°38' E 139°45'0 0.0
2015-Mar-24 09:33N 35°38' E 139°45'0 0.0
2015-Mar-24 08:33N 35°38' E 139°45'0 0.0
2015-Mar-24 07:33N 35°38' E 139°45'0 0.0
2015-Mar-24 06:34N 35°38' E 139°45'0 0.0
2015-Mar-24 05:33N 35°38' E 139°45'0 0.0
2015-Mar-24 04:33N 35°38' E 139°45'0 0.0
2015-Mar-24 03:33N 35°38' E 139°45'0 0.0
2015-Mar-24 02:33N 35°38' E 139°45'0 0.0
2015-Mar-24 01:33N 35°38' E 139°45'0 0.0
2015-Mar-24 00:33N 35°38' E 139°45'0 0.0
2015-Mar-23 23:33N 35°38' E 139°45'3 3.1
2015-Mar-23 22:33N 35°35' E 139°47'1 0.8
2015-Mar-23 21:34N 35°35' E 139°48'4 3.7
2015-Mar-23 20:33N 35°38' E 139°45'2 2.1
2015-Mar-23 19:34N 35°36' E 139°47'1 0.7
2015-Mar-23 18:34N 35°37' E 139°46'1 1.4
2015-Mar-23 17:33N 35°38' E 139°45'0 0.0
2015-Mar-23 16:33N 35°38' E 139°45'0 0.0
2015-Mar-23 15:33N 35°38' E 139°46'0 0.0
2015-Mar-23 14:33N 35°38' E 139°45'0 0.0
2015-Mar-23 13:33N 35°38' E 139°45'0 0.0
2015-Mar-23 12:33N 35°38' E 139°45'0 0.0
2015-Mar-23 11:33N 35°38' E 139°45'0 0.0
2015-Mar-23 10:33N 35°38' E 139°45'0 0.0
2015-Mar-23 09:34N 35°38' E 139°45'0 0.0
2015-Mar-23 08:34N 35°38' E 139°45'0 0.0
2015-Mar-23 07:33N 35°38' E 139°45'0 0.0
2015-Mar-23 06:33N 35°38' E 139°45'0 0.0
2015-Mar-23 05:33N 35°38' E 139°45'0 0.0
2015-Mar-23 04:33N 35°38' E 139°45'0 0.0
2015-Mar-23 03:33N 35°38' E 139°45'0 0.0
2015-Mar-23 02:33N 35°38' E 139°45'0 0.0
2015-Mar-23 01:33N 35°38' E 139°45'0 0.0
2015-Mar-23 00:33N 35°38' E 139°45'0 0.2
2015-Mar-22 23:33N 35°38' E 139°46'5 4.8
2015-Mar-22 22:33N 35°34' E 139°49'5 4.8
2015-Mar-22 21:33N 35°38' E 139°45'0 0.0
2015-Mar-22 20:33N 35°38' E 139°45'0 0.0
2015-Mar-22 19:33N 35°38' E 139°45'0 0.0
2015-Mar-22 18:33N 35°38' E 139°45'0 0.0
2015-Mar-22 17:33N 35°38' E 139°45'0 0.0
2015-Mar-22 16:33N 35°38' E 139°45'0 0.0
2015-Mar-22 15:33N 35°38' E 139°45'0 0.0
2015-Mar-22 14:33N 35°38' E 139°45'0 0.0
2015-Mar-22 13:33N 35°38' E 139°45'0 0.0
2015-Mar-22 12:34N 35°38' E 139°45'0 0.0
2015-Mar-22 11:33N 35°38' E 139°45'0 0.0
2015-Mar-22 10:33N 35°38' E 139°45'3 0.2
2015-Mar-21 22:29N 35°36' E 139°48'2 2.6
2015-Mar-21 21:33N 35°34' E 139°49'4 3.6
2015-Mar-21 20:30N 35°37' E 139°46'2 0.0
2015-Mar-20 11:14N 35°38' E 139°45'1 1.4
2015-Mar-20 10:24N 35°37' E 139°46'2 2.1
2015-Mar-20 09:33N 35°36' E 139°47'2 1.7
2015-Mar-20 08:32N 35°37' E 139°46'2 0.2
2015-Mar-19 23:13N 35°35' E 139°47'2 3.0
2015-Mar-19 22:32N 35°34' E 139°49'2 2.0
2015-Mar-19 21:32N 35°35' E 139°47'3 2.5
2015-Mar-19 20:29N 35°38' E 139°46'0 0.0
2015-Mar-19 09:13N 35°38' E 139°46'3 4.4
2015-Mar-19 08:33N 35°36' E 139°47'2 1.6
2015-Mar-19 07:25N 35°37' E 139°46'1 0.1
2015-Mar-18 23:04N 35°38' E 139°46'2 3.9
2015-Mar-18 22:29N 35°36' E 139°48'1 1.3
2015-Mar-18 21:29N 35°37' E 139°46'1 0.0
2015-Mar-17 15:03N 35°38' E 139°46'2 3.4
2015-Mar-17 14:23N 35°36' E 139°47'0 0.3
2015-Mar-17 13:32N 35°35' E 139°47'2 0.5
2015-Mar-17 10:04N 35°37' E 139°46'1 1.0
2015-Mar-17 09:33N 35°37' E 139°47'1 0.5
2015-Mar-17 08:24N 35°37' E 139°46'  

Dump ship's entire track history